Caledonia, Illinois
Current Conditions -  °F | °C
As of 5:54 AM on Thursday 23 Oct 2014 (Local Time) from KRFD Reporting Station
Broken Clouds Broken Clouds  
Wind Chill: 34°   Ceiling: 22000
Heat Index: 38°   Visibility: 8mi
Dew Point: 34°   Wind: 5mph
Humidity: 86%   Direction: 150°SSE
Pressure: 30.21"   Gusts: NA
Location:  42.37°N, 88.89°W
Report Text: KRFD 231054Z 15004KT 8SM BKN220 03/01 A3021 RMK AO2 SLP235 T00330011
Loading
Personal Weather Stations






























Interactive Weather Map
Tropical Storm Tracking
New forecast layout! Learn more

10-Day Weather Forecast

Advertisements
Track Severe Weather on mobile